Rota, Northern Mariana Islands
Current Conditions -  °F | °C
As of 7:50 PM on Saturday 22 Nov 2014 (Local Time) from PGRO Reporting Station
Broken Clouds Broken Clouds  
Wind Chill: 79°   Ceiling: 2000
Heat Index: 82°   Visibility: 7mi
Dew Point: 75°   Wind: 15mph
Humidity: 89%   Direction: 110°ESE
Pressure: 29.88"   Gusts: 23mph
Location:  14.14°N, 145.14°E
Report Text: PGRO 220950Z 11013G20KT 7SM BKN020 26/24 A2988 RMK LAST
Loading
Personal Weather Stations






























Interactive Weather Map New forecast layout! Learn more

10-Day Weather Forecast

Advertisements
Track Severe Weather on mobile